Free Spirit — V7VG7 — position and weather

sailwx.info

Track history (hours):
 
Tides and Currents Weather Stations Pressure Air Temp Water Temp Dewpoint Dewpoint Depression Visibility Wind Speed Wind Dir Waves Ship Positions

Free Spirit

Last reported at 2017-Oct-16 15:01 UTC. Time now 2017-Oct-17 23:52 UTC.
Position N 01°14' E 103°55'.

Length 250 m; draft 12.8 m.

Type: Tanker. MMSI: 538004118.

Date/timePositionNaut miles runAvg speedWind from/ knotsBaromVisibWave heightAir tempDewpointWater temp
2017-Oct-16 15:01N 01°14' E 103°55'0 0.0
2017-Oct-16 14:43N 01°14' E 103°55'0 0.0
2017-Oct-16 14:26N 01°14' E 103°55'0 0.0
2017-Oct-16 13:04N 01°14' E 103°55'0 0.0
2017-Oct-16 12:48N 01°14' E 103°55'0 0.0
2017-Oct-16 12:16N 01°14' E 103°55'0 0.0
2017-Oct-16 11:59N 01°14' E 103°55'0 0.1
2017-Oct-16 11:25N 01°14' E 103°55'0 0.1
2017-Oct-16 07:29N 01°15' E 103°55'0 0.0
2017-Oct-16 06:58N 01°15' E 103°55'0 0.1
2017-Oct-16 06:28N 01°15' E 103°55'0 0.0
2017-Oct-16 05:47N 01°15' E 103°55'0 0.0
2017-Oct-16 05:07N 01°15' E 103°55'0 0.0
2017-Oct-16 04:54N 01°15' E 103°55'0 0.0
2017-Oct-16 04:27N 01°15' E 103°55'0 0.9
2017-Oct-16 03:59N 01°14' E 103°55'0 0.7
2017-Oct-16 03:31N 01°14' E 103°55'0 0.1
2017-Oct-16 02:54N 01°14' E 103°55'0 0.2
2017-Oct-16 02:30N 01°14' E 103°55'0 0.4
2017-Oct-16 02:00N 01°15' E 103°55'0 0.5
2017-Oct-16 01:29N 01°15' E 103°55'2 3.4
2017-Oct-16 00:55N 01°16' E 103°57'0 1.1
2017-Oct-16 00:31N 01°15' E 103°57'1 1.1
2017-Oct-16 00:00N 01°15' E 103°57'2 2.7
2017-Oct-15 23:21N 01°14' E 103°55'1 3.7
2017-Oct-15 23:00N 01°13' E 103°55'2 3.1
2017-Oct-15 22:27N 01°12' E 103°53'1 2.7
2017-Oct-15 22:00N 01°12' E 103°52'1 2.6
2017-Oct-15 21:26N 01°11' E 103°51'1 2.6
2017-Oct-15 21:00N 01°11' E 103°50'1 2.0
2017-Oct-15 20:27N 01°10' E 103°49'817.8
2017-Oct-15 20:00N 01°15' E 103°55'0 0.0
2017-Oct-15 19:28N 01°15' E 103°55'0 0.0
2017-Oct-15 18:45N 01°15' E 103°55'0 0.0
2017-Oct-15 18:18N 01°15' E 103°55'0 0.0
2017-Oct-15 17:18N 01°15' E 103°55'0 0.0
2017-Oct-15 17:00N 01°15' E 103°55'0 0.1
2017-Oct-15 16:24N 01°15' E 103°55'0 0.1
2017-Oct-15 15:57N 01°15' E 103°55'0 0.0
2017-Oct-15 14:42N 01°14' E 103°55'1 0.8
2017-Oct-15 14:00N 01°15' E 103°56'1 2.8
2017-Oct-15 13:30N 01°15' E 103°57'2 3.1
2017-Oct-15 13:00N 01°14' E 103°56'3 5.5
2017-Oct-15 12:30N 01°13' E 103°54'4 7.4
2017-Oct-15 12:00N 01°11' E 103°51'4 8.1
2017-Oct-15 11:30N 01°09' E 103°47'4 8.1
2017-Oct-15 11:01N 01°06' E 103°44'5 9.3
2017-Oct-15 10:27N 01°03' E 103°40'4 9.0
2017-Oct-15 10:00N 01°04' E 103°36'6 9.5
2017-Oct-15 09:24N 01°07' E 103°31'4 9.2
2017-Oct-15 08:58N 01°09' E 103°28'  
Track history (hours):
 
Tides and Currents Weather Stations Pressure Air Temp Water Temp Dewpoint Dewpoint Depression Visibility Wind Speed Wind Dir Waves Ship Positions

Free Spirit

Last reported at 2017-Oct-16 15:01 UTC. Time now 2017-Oct-17 23:52 UTC.
Position N 01°14' E 103°55'.

Length 250 m; draft 12.8 m.

Type: Tanker. MMSI: 538004118.

Date/timePositionNaut miles runAvg speedWind from/ knotsBaromVisibWave heightAir tempDewpointWater temp
2017-Oct-16 15:01N 01°14' E 103°55'0 0.0
2017-Oct-16 14:43N 01°14' E 103°55'0 0.0
2017-Oct-16 14:26N 01°14' E 103°55'0 0.0
2017-Oct-16 13:04N 01°14' E 103°55'0 0.0
2017-Oct-16 12:48N 01°14' E 103°55'0 0.0
2017-Oct-16 12:16N 01°14' E 103°55'0 0.0
2017-Oct-16 11:59N 01°14' E 103°55'0 0.1
2017-Oct-16 11:25N 01°14' E 103°55'0 0.1
2017-Oct-16 07:29N 01°15' E 103°55'0 0.0
2017-Oct-16 06:58N 01°15' E 103°55'0 0.1
2017-Oct-16 06:28N 01°15' E 103°55'0 0.0
2017-Oct-16 05:47N 01°15' E 103°55'0 0.0
2017-Oct-16 05:07N 01°15' E 103°55'0 0.0
2017-Oct-16 04:54N 01°15' E 103°55'0 0.0
2017-Oct-16 04:27N 01°15' E 103°55'0 0.9
2017-Oct-16 03:59N 01°14' E 103°55'0 0.7
2017-Oct-16 03:31N 01°14' E 103°55'0 0.1
2017-Oct-16 02:54N 01°14' E 103°55'0 0.2
2017-Oct-16 02:30N 01°14' E 103°55'0 0.4
2017-Oct-16 02:00N 01°15' E 103°55'0 0.5
2017-Oct-16 01:29N 01°15' E 103°55'2 3.4
2017-Oct-16 00:55N 01°16' E 103°57'0 1.1
2017-Oct-16 00:31N 01°15' E 103°57'1 1.1
2017-Oct-16 00:00N 01°15' E 103°57'2 2.7
2017-Oct-15 23:21N 01°14' E 103°55'1 3.7
2017-Oct-15 23:00N 01°13' E 103°55'2 3.1
2017-Oct-15 22:27N 01°12' E 103°53'1 2.7
2017-Oct-15 22:00N 01°12' E 103°52'1 2.6
2017-Oct-15 21:26N 01°11' E 103°51'1 2.6
2017-Oct-15 21:00N 01°11' E 103°50'1 2.0
2017-Oct-15 20:27N 01°10' E 103°49'817.8
2017-Oct-15 20:00N 01°15' E 103°55'0 0.0
2017-Oct-15 19:28N 01°15' E 103°55'0 0.0
2017-Oct-15 18:45N 01°15' E 103°55'0 0.0
2017-Oct-15 18:18N 01°15' E 103°55'0 0.0
2017-Oct-15 17:18N 01°15' E 103°55'0 0.0
2017-Oct-15 17:00N 01°15' E 103°55'0 0.1
2017-Oct-15 16:24N 01°15' E 103°55'0 0.1
2017-Oct-15 15:57N 01°15' E 103°55'0 0.0
2017-Oct-15 14:42N 01°14' E 103°55'1 0.8
2017-Oct-15 14:00N 01°15' E 103°56'1 2.8
2017-Oct-15 13:30N 01°15' E 103°57'2 3.1
2017-Oct-15 13:00N 01°14' E 103°56'3 5.5
2017-Oct-15 12:30N 01°13' E 103°54'4 7.4
2017-Oct-15 12:00N 01°11' E 103°51'4 8.1
2017-Oct-15 11:30N 01°09' E 103°47'4 8.1
2017-Oct-15 11:01N 01°06' E 103°44'5 9.3
2017-Oct-15 10:27N 01°03' E 103°40'4 9.0
2017-Oct-15 10:00N 01°04' E 103°36'6 9.5
2017-Oct-15 09:24N 01°07' E 103°31'4 9.2
2017-Oct-15 08:58N 01°09' E 103°28'  

Dump ship's entire track history